Methuen, MA

5:04 PM EDT on August 30, 2014 (GMT -0400)
lawrence | Change Station
CLOSE
Current Station
Personal Weather Station
Location: Lawrence, MA
Elevation: 98 ft
Nearby Weather Stations

Elev 98 ft 42.72 °N, 71.15 °W | Updated 13 minutes ago

Clear
Clear
77.8 °F
Feels Like 79 °F
N
0.0
Wind Variable Wind from SW
Gusts 14.0 mph

Today
High -- | Low -- °F
--% Chance of Precip.
Yesterday
High -- | Low -- °F
Precip. -- in
6:07 AM 7:22 PM
Waxing Crescent, 24% visible
Pressure 30.17 in
Visibility 10.0 miles
Clouds Clear
Heat Index 79 °F
Dew Point 58 °F
Humidity 51%
Rainfall 0.00 in
Snow Depth Not available.
UV 2 out of 12
Pollen 9.20 out of 12
PM2.5 Good
Flu Activity Not available.
METAR KLWM 302054Z 22013G16KT 10SM CLR 25/13 A3016 RMK AO2 SLP214 T02500128 56021

More Conditions Fewer Conditions

Pressure 30.17 in
Visibility 10.0 miles
Clouds Clear
Heat Index 79 °F
Dew Point 58 °F
Humidity 51%
Rainfall 0.00 in
Snow Depth Not available.
UV 2 out of 12
Pollen 9.20 out of 12
PM2.5 Good
Flu Activity Not available.
METAR KLWM 302054Z 22013G16KT 10SM CLR 25/13 A3016 RMK AO2 SLP214 T02500128 56021

More Conditions Fewer Conditions

10-Day Weather Forecast

Almanac

Astronomy

Aug. 30, 2014 Rise Set
Actual Time 6:07 AM EDT 7:22 PM EDT
Civil Twilight 5:38 AM EDT 7:51 PM EDT
Nautical Twilight 5:02 AM EDT 8:26 PM EDT
Astronomical Twilight 4:25 AM EDT 9:03 PM EDT
Moon 10:59 AM EDT 9:47 PM EDT
Length of Visible Light 14h 13m
Length of Day
13h 15m
Tomorrow will be 2m 46s shorter.
Waxing Crescent, 24% of the Moon is Illuminated
Today
Waxing Crescent
Sep 2
First Quarter
Sep 8
Full
Sep 15
Last Quarter
Sep 24
New

Today's Extremes

State Highs State Lows

Community

WunderPhotos

Upload Photos

1,748,627 photos uploaded!

WunderBlogs® & News

Nearby

Air Quality

  Air Quality AQ Index Pollutant
Yesterday Good
OZONE
Yesterday Good
PM2.5
Current Good
PM2.5
Saturday Good
PM2.5
Saturday Good
OZONE
Sunday Good
PM2.5
Sunday Good
OZONE

Snow Depth

Station Depth Elevation
No new snow has been reported.

Earthquake Activity

City Distance Mag. Time & Date
No recent earthquake activity has been reported nearby.
Minimum magnitude displayed is 2.5.

Coastal Water Temperatures

Place Temperature
Boston, MA 66.9 °F
Fall River, MA 73.0 °F

Nearby Weather Stations